createdAt,value
2023-01-26T00:01:57.269Z,-0.03
2023-01-26T00:16:57.811Z,-0.05
2023-01-26T00:31:58.406Z,-0.01
2023-01-26T00:46:59.063Z,-0.04
2023-01-26T01:01:59.717Z,-0.05
2023-01-26T01:17:00.654Z,-0.07
2023-01-26T01:32:00.913Z,-0.07
2023-01-26T01:47:00.943Z,-0.05
2023-01-26T02:02:03.336Z,-0.15
2023-01-26T02:17:04.419Z,-0.14
2023-01-26T02:32:05.027Z,-0.04
2023-01-26T02:47:17.752Z,-0.16
2023-01-26T03:02:18.362Z,-0.07
2023-01-26T03:17:18.959Z,-0.11
2023-01-26T03:32:19.945Z,-0.18
2023-01-26T03:47:20.162Z,-0.19
2023-01-26T04:02:21.199Z,-0.22
2023-01-26T04:17:23.409Z,-0.31
2023-01-26T04:32:24.001Z,-0.28
2023-01-26T04:47:24.645Z,-0.29
2023-01-26T05:02:25.626Z,-0.37
2023-01-26T05:17:25.837Z,-0.43
2023-01-26T05:32:27.704Z,-0.42
2023-01-26T05:47:28.719Z,-0.42
2023-01-26T06:02:29.395Z,-0.44
2023-01-26T06:17:29.523Z,-0.57
2023-01-26T06:32:30.114Z,-0.58
2023-01-26T06:47:31.542Z,-0.62
2023-01-26T07:02:43.670Z,-0.57
2023-01-26T07:17:44.228Z,-0.60
2023-01-26T07:32:44.847Z,-0.55
2023-01-26T07:47:45.452Z,-0.72
2023-01-26T08:02:46.169Z,-0.70
2023-01-26T08:17:46.784Z,-0.64
2023-01-26T08:32:47.262Z,-0.72
2023-01-26T08:47:47.844Z,-0.60
2023-01-26T09:03:02.627Z,-0.69
2023-01-26T09:18:02.929Z,-0.61
2023-01-26T09:33:03.589Z,-0.57
2023-01-26T09:48:03.707Z,-0.43
2023-01-26T10:03:04.756Z,-0.33
2023-01-26T10:18:04.886Z,-0.29
2023-01-26T10:33:05.005Z,-0.16
2023-01-26T10:48:06.029Z,-0.18
2023-01-26T11:03:06.450Z,-0.10
2023-01-26T11:18:07.275Z,-0.05
2023-01-26T11:33:07.494Z,0.04
2023-01-26T11:48:08.054Z,-0.04
2023-01-26T12:03:08.776Z,0.04
2023-01-26T12:18:09.669Z,-0.01
2023-01-26T12:33:10.287Z,-0.05
2023-01-26T12:48:10.888Z,-0.07
2023-01-26T13:03:11.526Z,-0.15
2023-01-26T13:18:12.112Z,-0.28
2023-01-26T13:33:12.737Z,-0.43
2023-01-26T13:48:13.309Z,-0.42
2023-01-26T14:03:13.503Z,-0.47
2023-01-26T14:18:14.010Z,-0.51
2023-01-26T14:33:14.632Z,-0.39
2023-01-26T14:48:14.817Z,-0.42
2023-01-26T15:03:15.417Z,-0.52
2023-01-26T15:18:16.056Z,-0.52
2023-01-26T15:33:17.105Z,-0.54
2023-01-26T15:48:17.293Z,-0.57
2023-01-26T16:03:18.327Z,-0.69
2023-01-26T16:18:18.500Z,-0.67
2023-01-26T16:33:19.108Z,-0.65
2023-01-26T16:48:19.700Z,-0.52
2023-01-26T17:03:20.714Z,-0.64
2023-01-26T17:18:20.933Z,-0.51
2023-01-26T17:33:22.872Z,-0.64
2023-01-26T17:48:23.475Z,-0.58
2023-01-26T18:03:24.105Z,-0.55
2023-01-26T18:18:24.672Z,-0.52
2023-01-26T18:33:25.302Z,-0.52
2023-01-26T18:48:25.397Z,-0.51
2023-01-26T19:03:26.055Z,-0.46
2023-01-26T19:18:26.533Z,-0.40
2023-01-26T19:33:26.759Z,-0.33
2023-01-26T19:48:27.233Z,-0.29
2023-01-26T20:03:28.064Z,-0.21
2023-01-26T20:18:28.634Z,-0.21
2023-01-26T20:33:28.973Z,-0.16
2023-01-26T20:48:29.396Z,-0.16
2023-01-26T21:03:31.447Z,-0.03
2023-01-26T21:18:31.901Z,0.07
2023-01-26T21:33:32.738Z,0.03
2023-01-26T21:48:34.259Z,-0.01
2023-01-26T22:03:34.858Z,0.00
2023-01-26T22:18:35.061Z,0.11
2023-01-26T22:33:35.844Z,0.04
2023-01-26T22:48:37.680Z,0.18
2023-01-26T23:03:37.887Z,0.17
2023-01-26T23:18:38.627Z,0.14
2023-01-26T23:33:40.127Z,0.20
2023-01-26T23:48:40.686Z,0.18
